createdAt,value
2024-02-12T00:00:38.558Z,55.44
2024-02-12T00:01:38.625Z,53.11
2024-02-12T00:02:38.501Z,46.16
2024-02-12T00:03:38.456Z,49.57
2024-02-12T00:04:38.479Z,50.61
2024-02-12T00:05:38.564Z,64.30
2024-02-12T00:06:38.575Z,47.54
2024-02-12T00:07:38.434Z,54.99
2024-02-12T00:08:38.535Z,44.65
2024-02-12T00:09:38.455Z,44.45
2024-02-12T00:10:38.437Z,55.53
2024-02-12T00:11:38.591Z,41.85
2024-02-12T00:12:38.438Z,41.18
2024-02-12T00:13:38.380Z,41.45
2024-02-12T00:14:38.488Z,58.60
2024-02-12T00:15:38.396Z,58.99
2024-02-12T00:16:38.448Z,41.95
2024-02-12T00:17:38.464Z,41.91
2024-02-12T00:18:38.444Z,56.39
2024-02-12T00:19:38.376Z,56.38
2024-02-12T00:20:38.478Z,42.81
2024-02-12T00:21:38.342Z,61.66
2024-02-12T00:22:38.335Z,47.79
2024-02-12T00:23:38.338Z,57.71
2024-02-12T00:24:38.338Z,44.21
2024-02-12T00:25:38.314Z,44.17
2024-02-12T00:26:38.333Z,46.28
2024-02-12T00:27:38.282Z,42.39
2024-02-12T00:28:38.307Z,49.44
2024-02-12T00:29:38.321Z,43.01
2024-02-12T00:30:38.246Z,42.48
2024-02-12T00:31:38.264Z,54.23
2024-02-12T00:32:38.481Z,51.36
2024-02-12T00:33:38.439Z,53.70
2024-02-12T00:34:38.234Z,41.84
2024-02-12T00:35:38.237Z,41.31
2024-02-12T00:36:38.231Z,41.23
2024-02-12T00:37:38.230Z,41.30
2024-02-12T00:38:38.268Z,51.14
2024-02-12T00:39:38.246Z,42.18
2024-02-12T00:40:38.187Z,57.31
2024-02-12T00:41:38.252Z,56.12
2024-02-12T00:42:38.154Z,60.39
2024-02-12T00:43:38.197Z,47.11
2024-02-12T00:44:38.180Z,45.76
2024-02-12T00:45:38.155Z,49.97
2024-02-12T00:46:38.150Z,41.21
2024-02-12T00:47:38.702Z,41.03
2024-02-12T00:48:38.244Z,41.03
2024-02-12T00:49:38.114Z,46.74
2024-02-12T00:50:38.240Z,41.11
2024-02-12T00:51:38.124Z,46.43
2024-02-12T00:52:38.117Z,54.12
2024-02-12T00:53:38.106Z,48.15
2024-02-12T00:54:38.061Z,41.30
2024-02-12T00:55:38.053Z,50.50
2024-02-12T00:56:38.145Z,57.76
2024-02-12T00:57:38.083Z,44.85
2024-02-12T00:58:38.040Z,46.49
2024-02-12T00:59:38.071Z,46.64
2024-02-12T01:00:38.045Z,43.06
2024-02-12T01:01:38.035Z,45.48
2024-02-12T01:02:38.083Z,50.78
2024-02-12T01:03:38.049Z,47.07
2024-02-12T01:04:38.006Z,50.42
2024-02-12T01:05:38.115Z,51.61
2024-02-12T01:06:38.195Z,54.37
2024-02-12T01:07:37.984Z,45.32
2024-02-12T01:08:38.727Z,45.39
2024-02-12T01:09:37.942Z,54.22
2024-02-12T01:10:37.977Z,45.12
2024-02-12T01:11:38.006Z,46.99
2024-02-12T01:12:37.938Z,41.30
2024-02-12T01:13:37.916Z,41.28
2024-02-12T01:14:37.978Z,52.70
2024-02-12T01:15:37.985Z,48.05
2024-02-12T01:16:38.056Z,46.82
2024-02-12T01:17:38.383Z,42.83
2024-02-12T01:18:37.915Z,56.38
2024-02-12T01:19:37.907Z,44.02
2024-02-12T01:20:38.035Z,46.74
2024-02-12T01:21:37.878Z,50.67
2024-02-12T01:22:37.879Z,48.64
2024-02-12T01:23:37.933Z,51.43
2024-02-12T01:24:37.853Z,43.54
2024-02-12T01:25:37.934Z,45.35
2024-02-12T01:26:37.921Z,41.33
2024-02-12T01:27:37.818Z,41.34
2024-02-12T01:28:37.810Z,50.69
2024-02-12T01:29:37.873Z,50.66
2024-02-12T01:30:37.851Z,41.30
2024-02-12T01:31:37.834Z,55.87
2024-02-12T01:32:37.984Z,45.92
2024-02-12T01:33:37.800Z,41.41
2024-02-12T01:34:37.780Z,47.95
2024-02-12T01:35:37.860Z,45.05
2024-02-12T01:36:37.783Z,46.13
2024-02-12T01:37:37.749Z,48.90
2024-02-12T01:38:37.769Z,44.88
2024-02-12T01:39:37.795Z,41.83
2024-02-12T01:40:37.704Z,48.63
2024-02-12T01:41:37.796Z,43.51
2024-02-12T01:42:37.719Z,50.41
2024-02-12T01:43:37.691Z,45.39
2024-02-12T01:44:37.778Z,55.33
2024-02-12T01:45:37.707Z,46.49
2024-02-12T01:46:37.689Z,48.03
2024-02-12T01:47:37.750Z,50.29
2024-02-12T01:48:37.913Z,41.24
2024-02-12T01:49:37.816Z,57.79
2024-02-12T01:50:37.716Z,50.47
2024-02-12T01:51:37.660Z,45.15
2024-02-12T01:52:37.618Z,47.47
2024-02-12T01:53:37.720Z,55.12
2024-02-12T01:54:37.610Z,49.79
2024-02-12T01:55:37.644Z,41.74
2024-02-12T01:56:37.614Z,49.88
2024-02-12T01:57:37.593Z,52.92
2024-02-12T01:58:37.624Z,41.16
2024-02-12T01:59:37.627Z,52.78
2024-02-12T02:00:37.575Z,44.12
2024-02-12T02:01:37.570Z,45.40
2024-02-12T02:02:37.574Z,49.02
2024-02-12T02:03:37.721Z,47.28
2024-02-12T02:04:37.586Z,51.18
2024-02-12T02:05:37.641Z,47.54
2024-02-12T02:06:37.535Z,47.88
2024-02-12T02:07:37.505Z,60.27
2024-02-12T02:08:37.517Z,59.39
2024-02-12T02:09:37.474Z,49.21
2024-02-12T02:10:37.463Z,42.51
2024-02-12T02:11:37.491Z,54.60
2024-02-12T02:12:37.468Z,49.98
2024-02-12T02:13:37.468Z,54.63
2024-02-12T02:14:37.505Z,60.57
2024-02-12T02:15:37.469Z,57.88
2024-02-12T02:16:37.418Z,57.91
2024-02-12T02:17:37.661Z,49.42
2024-02-12T02:18:37.466Z,60.50
2024-02-12T02:19:37.395Z,55.38
2024-02-12T02:20:37.580Z,52.30
2024-02-12T02:21:37.392Z,55.12
2024-02-12T02:22:37.396Z,49.12
2024-02-12T02:23:37.469Z,52.76
2024-02-12T02:24:37.353Z,62.90
2024-02-12T02:25:37.346Z,49.10
2024-02-12T02:26:37.428Z,62.92
2024-02-12T02:27:37.360Z,46.94
2024-02-12T02:28:37.344Z,53.96
2024-02-12T02:29:37.348Z,45.48
2024-02-12T02:30:37.304Z,47.34
2024-02-12T02:31:37.313Z,44.25
2024-02-12T02:32:37.647Z,45.84
2024-02-12T02:33:37.342Z,47.24
2024-02-12T02:34:37.300Z,41.54
2024-02-12T02:35:37.303Z,54.47
2024-02-12T02:36:37.287Z,43.05
2024-02-12T02:37:37.244Z,55.47
2024-02-12T02:38:37.328Z,55.11
2024-02-12T02:39:37.234Z,50.42
2024-02-12T02:40:37.231Z,55.07
2024-02-12T02:41:37.297Z,49.04
2024-02-12T02:42:37.209Z,48.65
2024-02-12T02:43:37.205Z,47.28
2024-02-12T02:44:37.228Z,43.04
2024-02-12T02:45:38.226Z,58.44
2024-02-12T02:46:37.201Z,54.16
2024-02-12T02:47:37.379Z,43.64
2024-02-12T02:48:37.217Z,44.58
2024-02-12T02:49:37.197Z,52.24
2024-02-12T02:50:37.208Z,52.90
2024-02-12T02:51:37.151Z,41.42
2024-02-12T02:52:37.131Z,41.78
2024-02-12T02:53:37.173Z,51.18
2024-02-12T02:54:37.124Z,45.35
2024-02-12T02:55:37.140Z,46.10
2024-02-12T02:56:37.163Z,45.46
2024-02-12T02:57:37.090Z,57.31
2024-02-12T02:58:37.075Z,53.25
2024-02-12T02:59:38.166Z,56.73
2024-02-12T03:00:37.132Z,49.99
2024-02-12T03:01:37.053Z,48.13
2024-02-12T03:02:37.097Z,55.51
2024-02-12T03:03:37.087Z,57.41
2024-02-12T03:04:37.134Z,46.24
2024-02-12T03:05:37.091Z,58.75
2024-02-12T03:06:37.038Z,56.95
2024-02-12T03:07:37.005Z,53.29
2024-02-12T03:08:37.046Z,59.39
2024-02-12T03:09:37.017Z,47.46
2024-02-12T03:10:36.998Z,50.55
2024-02-12T03:11:37.026Z,56.47
2024-02-12T03:12:36.983Z,47.59
2024-02-12T03:13:36.966Z,55.07
2024-02-12T03:14:37.013Z,56.77
2024-02-12T03:15:37.081Z,53.34
2024-02-12T03:16:36.946Z,51.90
2024-02-12T03:17:37.014Z,57.38
2024-02-12T03:18:37.028Z,57.42
2024-02-12T03:19:36.982Z,60.74
2024-02-12T03:20:36.993Z,62.70
2024-02-12T03:21:36.909Z,53.08
2024-02-12T03:22:36.896Z,46.72
2024-02-12T03:23:37.027Z,47.88
2024-02-12T03:24:36.905Z,54.14
2024-02-12T03:25:36.878Z,53.45
2024-02-12T03:26:36.919Z,43.80
2024-02-12T03:27:36.861Z,51.62
2024-02-12T03:28:36.882Z,51.98
2024-02-12T03:29:36.931Z,50.87
2024-02-12T03:30:36.837Z,56.25
2024-02-12T03:31:36.831Z,59.11
2024-02-12T03:32:36.896Z,54.42
2024-02-12T03:33:36.837Z,49.10
2024-02-12T03:34:36.875Z,58.98
2024-02-12T03:35:36.933Z,54.76
2024-02-12T03:36:36.801Z,42.65
2024-02-12T03:37:36.785Z,50.35
2024-02-12T03:38:36.816Z,57.22
2024-02-12T03:39:36.772Z,51.31
2024-02-12T03:40:36.762Z,62.31
2024-02-12T03:41:36.825Z,45.42
2024-02-12T03:42:36.768Z,56.15
2024-02-12T03:43:36.759Z,56.19
2024-02-12T03:44:36.791Z,57.37
2024-02-12T03:45:36.728Z,56.31
2024-02-12T03:46:36.725Z,50.82
2024-02-12T03:47:36.816Z,56.07
2024-02-12T03:48:36.741Z,55.72
2024-02-12T03:49:36.701Z,58.71
2024-02-12T03:50:36.864Z,46.20
2024-02-12T03:51:36.679Z,50.90
2024-02-12T03:52:36.695Z,54.10
2024-02-12T03:53:36.790Z,52.28
2024-02-12T03:55:36.721Z,55.05
2024-02-12T03:56:36.676Z,50.00
2024-02-12T03:57:36.733Z,53.70
2024-02-12T03:58:36.632Z,57.81
2024-02-12T03:59:36.638Z,54.26
2024-02-12T04:00:36.656Z,52.85
2024-02-12T04:01:36.677Z,52.12
2024-02-12T04:02:36.622Z,63.69
2024-02-12T04:03:36.579Z,58.34
2024-02-12T04:04:36.605Z,54.32
2024-02-12T04:05:36.665Z,57.43
2024-02-12T04:06:36.594Z,54.47
2024-02-12T04:07:36.549Z,60.45
2024-02-12T04:08:37.572Z,58.04
2024-02-12T04:09:36.537Z,59.62
2024-02-12T04:10:36.539Z,60.89
2024-02-12T04:11:36.553Z,59.92
2024-02-12T04:12:36.512Z,54.00
2024-02-12T04:13:36.517Z,61.08
2024-02-12T04:14:36.540Z,60.51
2024-02-12T04:15:36.495Z,60.34
2024-02-12T04:16:36.514Z,63.21
2024-02-12T04:17:36.531Z,58.90
2024-02-12T04:18:36.516Z,58.99
2024-02-12T04:19:36.462Z,63.71
2024-02-12T04:20:36.505Z,64.90
2024-02-12T04:21:36.470Z,58.39
2024-02-12T04:22:36.470Z,61.57
2024-02-12T04:23:36.443Z,58.31
2024-02-12T04:24:36.426Z,62.20
2024-02-12T04:25:36.442Z,61.35
2024-02-12T04:26:36.475Z,58.95
2024-02-12T04:27:36.401Z,57.60
2024-02-12T04:28:36.391Z,60.38
2024-02-12T04:29:36.422Z,61.42
2024-02-12T04:30:36.408Z,62.13
2024-02-12T04:31:36.388Z,60.02
2024-02-12T04:32:36.498Z,60.48
2024-02-12T04:33:36.458Z,59.66
2024-02-12T04:34:36.480Z,59.09
2024-02-12T04:35:36.445Z,63.15
2024-02-12T04:36:36.328Z,64.14
2024-02-12T04:37:36.330Z,60.33
2024-02-12T04:38:36.458Z,61.27
2024-02-12T04:39:36.346Z,60.85
2024-02-12T04:40:36.313Z,57.66
2024-02-12T04:41:36.400Z,62.07
2024-02-12T04:42:36.295Z,59.88
2024-02-12T04:43:36.285Z,63.61
2024-02-12T04:44:36.362Z,56.43
2024-02-12T04:45:36.261Z,61.11
2024-02-12T04:46:36.249Z,57.10
2024-02-12T04:47:36.335Z,59.96
2024-02-12T04:48:36.344Z,63.34
2024-02-12T04:49:36.319Z,62.76
2024-02-12T04:50:36.308Z,58.49
2024-02-12T04:51:36.236Z,61.52
2024-02-12T04:52:36.203Z,60.25
2024-02-12T04:53:36.289Z,60.67
2024-02-12T04:54:36.220Z,57.85
2024-02-12T04:55:36.185Z,59.01
2024-02-12T04:56:36.330Z,59.11
2024-02-12T04:57:36.188Z,61.69
2024-02-12T04:58:36.182Z,54.75
2024-02-12T04:59:36.244Z,59.04
2024-02-12T05:00:36.192Z,58.65
2024-02-12T05:01:36.136Z,53.65
2024-02-12T05:02:36.165Z,55.92
2024-02-12T05:03:36.198Z,52.88
2024-02-12T05:04:36.160Z,60.65
2024-02-12T05:05:36.143Z,61.64
2024-02-12T05:06:36.100Z,61.26
2024-02-12T05:07:36.141Z,52.79
2024-02-12T05:08:36.330Z,59.84
2024-02-12T05:09:36.088Z,62.06
2024-02-12T05:10:36.072Z,60.36
2024-02-12T05:11:36.140Z,62.47
2024-02-12T05:12:36.077Z,59.21
2024-02-12T05:13:36.089Z,58.22
2024-02-12T05:14:36.207Z,61.50
2024-02-12T05:15:36.032Z,58.92
2024-02-12T05:16:36.518Z,54.98
2024-02-12T05:17:36.081Z,57.89
2024-02-12T05:18:36.174Z,57.59
2024-02-12T05:19:36.007Z,56.74
2024-02-12T05:20:36.005Z,62.18
2024-02-12T05:21:36.015Z,58.70
2024-02-12T05:22:36.237Z,59.30
2024-02-12T05:23:36.045Z,62.20
2024-02-12T05:24:36.014Z,59.15
2024-02-12T05:25:35.965Z,62.60
2024-02-12T05:26:36.036Z,63.84
2024-02-12T05:27:35.953Z,61.13
2024-02-12T05:28:35.933Z,59.95
2024-02-12T05:29:36.010Z,59.16
2024-02-12T05:30:35.925Z,61.29
2024-02-12T05:31:35.937Z,61.56
2024-02-12T05:32:35.957Z,61.41
2024-02-12T05:33:35.939Z,61.08
2024-02-12T05:34:35.901Z,64.01
2024-02-12T05:35:35.891Z,61.30
2024-02-12T05:36:35.886Z,63.61
2024-02-12T05:37:35.855Z,60.51
2024-02-12T05:38:35.920Z,61.10
2024-02-12T05:39:35.842Z,60.76
2024-02-12T05:40:35.840Z,64.71
2024-02-12T05:41:35.928Z,62.35
2024-02-12T05:42:35.828Z,62.19
2024-02-12T05:43:35.815Z,63.81
2024-02-12T05:44:35.823Z,64.86
2024-02-12T05:45:35.811Z,62.96
2024-02-12T05:46:35.819Z,62.78
2024-02-12T05:47:35.925Z,60.19
2024-02-12T05:48:35.827Z,61.71
2024-02-12T05:49:35.877Z,64.56
2024-02-12T05:50:35.855Z,60.12
2024-02-12T05:51:35.784Z,63.93
2024-02-12T05:52:35.768Z,59.14
2024-02-12T05:53:35.850Z,65.15
2024-02-12T05:54:35.740Z,64.70
2024-02-12T05:55:35.762Z,64.12
2024-02-12T05:56:35.745Z,61.20
2024-02-12T05:57:35.707Z,62.23
2024-02-12T05:58:35.711Z,65.00
2024-02-12T05:59:35.835Z,63.44
2024-02-12T06:00:35.719Z,64.47
2024-02-12T06:01:35.742Z,61.78
2024-02-12T06:02:35.725Z,66.72
2024-02-12T06:03:35.697Z,64.83
2024-02-12T06:04:35.683Z,65.04
2024-02-12T06:05:35.787Z,64.09
2024-02-12T06:06:35.819Z,63.50
2024-02-12T06:07:35.700Z,61.80
2024-02-12T06:08:35.666Z,65.71
2024-02-12T06:09:35.665Z,63.40
2024-02-12T06:10:35.608Z,63.96
2024-02-12T06:11:35.646Z,65.83
2024-02-12T06:12:35.595Z,65.58
2024-02-12T06:13:35.583Z,65.06
2024-02-12T06:14:35.642Z,65.41
2024-02-12T06:15:35.579Z,65.13
2024-02-12T06:16:35.557Z,62.43
2024-02-12T06:17:35.596Z,65.57
2024-02-12T06:18:35.595Z,63.64
2024-02-12T06:19:35.569Z,63.83
2024-02-12T06:20:35.634Z,61.47
2024-02-12T06:21:35.528Z,65.67
2024-02-12T06:22:35.519Z,64.17
2024-02-12T06:23:35.636Z,64.37
2024-02-12T06:24:35.503Z,65.07
2024-02-12T06:25:35.500Z,63.59
2024-02-12T06:26:35.613Z,63.04
2024-02-12T06:27:35.477Z,63.10
2024-02-12T06:28:35.498Z,63.16
2024-02-12T06:29:35.483Z,63.22
2024-02-12T06:30:35.452Z,65.35
2024-02-12T06:31:35.449Z,63.49
2024-02-12T06:32:35.571Z,66.48
2024-02-12T06:33:35.512Z,63.58
2024-02-12T06:34:35.484Z,63.21
2024-02-12T06:35:35.463Z,61.27
2024-02-12T06:36:35.409Z,63.93
2024-02-12T06:37:35.453Z,63.03
2024-02-12T06:38:35.448Z,63.53
2024-02-12T06:39:35.383Z,63.69
2024-02-12T06:40:35.385Z,62.86
2024-02-12T06:41:35.463Z,62.37
2024-02-12T06:42:35.414Z,61.86
2024-02-12T06:43:35.355Z,64.90
2024-02-12T06:44:35.417Z,67.09
2024-02-12T06:45:35.349Z,62.14
2024-02-12T06:46:35.345Z,64.22
2024-02-12T06:47:35.392Z,67.39
2024-02-12T06:48:35.383Z,63.45
2024-02-12T06:49:35.314Z,65.13
2024-02-12T06:50:35.346Z,66.96
2024-02-12T06:51:35.292Z,64.86
2024-02-12T06:52:35.308Z,63.57
2024-02-12T06:53:35.386Z,64.03
2024-02-12T06:54:35.274Z,60.70
2024-02-12T06:55:35.283Z,63.41
2024-02-12T06:56:35.356Z,65.14
2024-02-12T06:57:35.278Z,64.49
2024-02-12T06:58:35.246Z,57.90
2024-02-12T06:59:35.377Z,62.95
2024-02-12T07:00:35.355Z,59.74
2024-02-12T07:01:35.239Z,62.88
2024-02-12T07:02:35.280Z,63.66
2024-02-12T07:03:35.271Z,64.35
2024-02-12T07:04:35.240Z,62.57
2024-02-12T07:05:35.290Z,57.52
2024-02-12T07:06:35.261Z,63.17
2024-02-12T07:07:35.179Z,64.29
2024-02-12T07:08:35.217Z,63.43
2024-02-12T07:09:35.157Z,63.34
2024-02-12T07:10:35.167Z,63.90
2024-02-12T07:11:35.345Z,58.71
2024-02-12T07:12:35.131Z,63.32
2024-02-12T07:13:35.137Z,64.27
2024-02-12T07:14:36.147Z,60.92
2024-02-12T07:15:35.130Z,63.30
2024-02-12T07:16:36.105Z,60.06
2024-02-12T07:17:35.199Z,57.33
2024-02-12T07:18:35.143Z,62.34
2024-02-12T07:19:35.084Z,61.46
2024-02-12T07:20:35.135Z,62.62
2024-02-12T07:21:35.087Z,64.45
2024-02-12T07:22:35.054Z,58.03
2024-02-12T07:23:35.083Z,61.17
2024-02-12T07:24:35.072Z,63.33
2024-02-12T07:25:35.058Z,58.92
2024-02-12T07:26:35.115Z,58.38
2024-02-12T07:27:35.015Z,60.36
2024-02-12T07:28:35.002Z,62.62
2024-02-12T07:29:37.006Z,56.95
2024-02-12T07:30:34.999Z,61.26
2024-02-12T07:31:34.999Z,57.67
2024-02-12T07:32:35.000Z,60.58
2024-02-12T07:33:35.096Z,61.44
2024-02-12T07:34:35.014Z,61.02
2024-02-12T07:35:35.011Z,60.09
2024-02-12T07:36:34.948Z,62.57
2024-02-12T07:37:36.466Z,63.02
2024-02-12T07:38:36.030Z,60.25
2024-02-12T07:39:34.943Z,60.24
2024-02-12T07:40:34.916Z,61.61
2024-02-12T07:41:34.984Z,61.10
2024-02-12T07:42:34.895Z,64.12
2024-02-12T07:43:34.936Z,60.89
2024-02-12T07:44:34.997Z,62.80
2024-02-12T07:45:34.874Z,62.23
2024-02-12T07:46:34.864Z,63.25
2024-02-12T07:47:34.990Z,58.09
2024-02-12T07:48:34.889Z,60.29
2024-02-12T07:49:34.899Z,59.42
2024-02-12T07:50:34.859Z,63.98
2024-02-12T07:51:34.829Z,61.44
2024-02-12T07:52:34.847Z,63.90
2024-02-12T07:53:34.883Z,62.03
2024-02-12T07:54:34.873Z,62.34
2024-02-12T07:55:34.797Z,62.10
2024-02-12T07:56:34.822Z,64.26
2024-02-12T07:57:34.835Z,63.85
2024-02-12T07:58:34.795Z,61.37
2024-02-12T07:59:34.783Z,60.30
2024-02-12T08:00:34.800Z,60.25
2024-02-12T08:01:34.759Z,63.37
2024-02-12T08:02:34.829Z,64.40
2024-02-12T08:03:34.778Z,65.15
2024-02-12T08:04:34.730Z,63.41
2024-02-12T08:05:34.740Z,58.89
2024-02-12T08:06:34.752Z,63.82
2024-02-12T08:07:45.785Z,61.48
2024-02-12T08:08:36.736Z,59.42
2024-02-12T08:09:34.827Z,61.59
2024-02-12T08:10:34.685Z,59.02
2024-02-12T08:11:34.687Z,60.70
2024-02-12T08:12:34.694Z,60.51
2024-02-12T08:13:34.665Z,59.92
2024-02-12T08:14:34.787Z,60.54
2024-02-12T08:15:34.659Z,62.42
2024-02-12T08:16:34.640Z,61.87
2024-02-12T08:17:34.718Z,63.88
2024-02-12T08:18:34.750Z,62.64
2024-02-12T08:19:34.765Z,63.90
2024-02-12T08:20:34.737Z,63.73
2024-02-12T08:21:34.693Z,61.42
2024-02-12T08:22:34.622Z,59.44
2024-02-12T08:23:34.640Z,60.90
2024-02-12T08:24:34.579Z,63.81
2024-02-12T08:25:34.567Z,64.60
2024-02-12T08:26:34.655Z,61.99
2024-02-12T08:27:34.560Z,60.94
2024-02-12T08:28:34.548Z,64.69
2024-02-12T08:29:34.673Z,62.51
2024-02-12T08:30:34.535Z,64.34
2024-02-12T08:31:34.544Z,59.02
2024-02-12T08:32:34.630Z,59.68
2024-02-12T08:33:34.552Z,62.80
2024-02-12T08:34:34.540Z,64.57
2024-02-12T08:35:34.606Z,64.35
2024-02-12T08:36:34.517Z,60.87
2024-02-12T08:37:34.476Z,61.02
2024-02-12T08:38:34.551Z,60.37
2024-02-12T08:39:34.460Z,64.45
2024-02-12T08:40:34.479Z,62.94
2024-02-12T08:41:34.499Z,62.91
2024-02-12T08:42:34.456Z,63.59
2024-02-12T08:43:34.441Z,64.76
2024-02-12T08:44:34.475Z,62.09
2024-02-12T08:45:34.448Z,62.49
2024-02-12T08:46:34.415Z,61.55
2024-02-12T08:47:34.585Z,63.73
2024-02-12T08:48:34.417Z,63.03
2024-02-12T08:49:34.434Z,62.56
2024-02-12T08:50:34.452Z,61.29
2024-02-12T08:51:34.382Z,63.68
2024-02-12T08:52:34.365Z,62.83
2024-02-12T08:53:34.427Z,59.58
2024-02-12T08:54:34.375Z,61.62
2024-02-12T08:55:34.365Z,62.64
2024-02-12T08:56:34.450Z,62.44
2024-02-12T08:57:34.321Z,61.21
2024-02-12T08:58:34.323Z,57.19
2024-02-12T08:59:34.365Z,61.26
2024-02-12T09:00:34.345Z,60.18
2024-02-12T09:01:34.291Z,60.21
2024-02-12T09:02:34.299Z,61.81
2024-02-12T09:03:34.329Z,62.25
2024-02-12T09:04:34.289Z,63.47
2024-02-12T09:05:34.335Z,61.97
2024-02-12T09:06:34.344Z,58.79
2024-02-12T09:07:34.243Z,61.03
2024-02-12T09:08:34.323Z,60.71
2024-02-12T09:09:34.273Z,60.05
2024-02-12T09:10:34.213Z,62.88
2024-02-12T09:11:35.255Z,63.36
2024-02-12T09:12:40.203Z,60.24
2024-02-12T09:13:36.193Z,62.95
2024-02-12T09:14:34.267Z,59.19
2024-02-12T09:15:34.174Z,61.39
2024-02-12T09:16:34.178Z,58.83
2024-02-12T09:17:34.215Z,62.46
2024-02-12T09:18:35.250Z,53.89
2024-02-12T09:19:34.207Z,65.25
2024-02-12T09:20:34.183Z,63.04
2024-02-12T09:21:34.136Z,63.35
2024-02-12T09:22:34.131Z,62.24
2024-02-12T09:23:34.534Z,58.69
2024-02-12T09:24:34.105Z,64.03
2024-02-12T09:25:34.097Z,62.79
2024-02-12T09:26:34.134Z,64.12
2024-02-12T09:27:34.099Z,60.58
2024-02-12T09:28:34.093Z,64.70
2024-02-12T09:29:34.073Z,55.04
2024-02-12T09:30:34.059Z,61.96
2024-02-12T09:31:34.055Z,57.42
2024-02-12T09:32:34.113Z,60.92
2024-02-12T09:33:34.151Z,58.26
2024-02-12T09:34:34.205Z,60.87
2024-02-12T09:35:34.033Z,60.66
2024-02-12T09:36:34.006Z,60.25
2024-02-12T09:37:34.038Z,59.87
2024-02-12T09:38:34.156Z,62.95
2024-02-12T09:39:33.994Z,60.95
2024-02-12T09:40:34.053Z,57.04
2024-02-12T09:41:33.988Z,60.61
2024-02-12T09:42:33.992Z,60.71
2024-02-12T09:43:33.970Z,57.66
2024-02-12T09:44:33.971Z,58.14
2024-02-12T09:45:33.949Z,52.12
2024-02-12T09:46:33.935Z,56.83
2024-02-12T09:47:34.129Z,55.33
2024-02-12T09:48:33.961Z,59.38
2024-02-12T09:49:33.912Z,58.00
2024-02-12T09:50:33.996Z,59.25
2024-02-12T09:51:33.917Z,57.58
2024-02-12T09:52:33.914Z,55.93
2024-02-12T09:53:33.939Z,51.88
2024-02-12T09:54:33.873Z,58.32
2024-02-12T09:55:33.878Z,59.05
2024-02-12T09:56:33.961Z,56.25
2024-02-12T09:57:33.909Z,49.94
2024-02-12T09:58:33.855Z,59.38
2024-02-12T09:59:33.873Z,50.22
2024-02-12T10:00:33.909Z,55.16
2024-02-12T10:01:34.611Z,57.34
2024-02-12T10:02:33.845Z,57.46
2024-02-12T10:03:33.837Z,53.06
2024-02-12T10:04:33.793Z,54.61
2024-02-12T10:05:33.898Z,55.68
2024-02-12T10:06:33.915Z,57.26
2024-02-12T10:07:34.512Z,59.85
2024-02-12T10:08:33.770Z,56.88
2024-02-12T10:09:33.749Z,53.55
2024-02-12T10:10:33.747Z,59.69
2024-02-12T10:11:33.840Z,56.21
2024-02-12T10:12:33.731Z,57.70
2024-02-12T10:13:33.713Z,57.66
2024-02-12T10:14:33.777Z,58.30
2024-02-12T10:15:33.700Z,56.02
2024-02-12T10:16:33.712Z,56.87
2024-02-12T10:17:33.756Z,56.91
2024-02-12T10:18:33.696Z,57.79
2024-02-12T10:19:34.185Z,53.31
2024-02-12T10:20:33.707Z,58.70
2024-02-12T10:21:33.680Z,57.78
2024-02-12T10:22:33.641Z,56.41
2024-02-12T10:23:33.667Z,54.65
2024-02-12T10:24:33.632Z,59.19
2024-02-12T10:25:34.423Z,56.12
2024-02-12T10:26:33.650Z,49.00
2024-02-12T10:27:33.611Z,52.80
2024-02-12T10:28:33.600Z,56.52
2024-02-12T10:29:33.618Z,56.66
2024-02-12T10:30:33.622Z,55.30
2024-02-12T10:31:33.587Z,53.53
2024-02-12T10:32:33.700Z,52.70
2024-02-12T10:33:33.665Z,50.17
2024-02-12T10:34:33.602Z,53.19
2024-02-12T10:35:33.609Z,55.28
2024-02-12T10:36:33.569Z,56.49
2024-02-12T10:37:33.561Z,57.24
2024-02-12T10:38:33.537Z,55.14
2024-02-12T10:39:33.550Z,56.16
2024-02-12T10:40:33.537Z,53.17
2024-02-12T10:41:33.658Z,54.07
2024-02-12T10:42:33.498Z,54.47
2024-02-12T10:43:33.489Z,58.78
2024-02-12T10:44:33.560Z,56.40
2024-02-12T10:45:33.513Z,55.00
2024-02-12T10:46:33.471Z,56.13
2024-02-12T10:47:33.490Z,55.25
2024-02-12T10:48:33.535Z,53.17
2024-02-12T10:49:33.470Z,52.59
2024-02-12T10:50:33.495Z,54.22
2024-02-12T10:51:33.432Z,53.80
2024-02-12T10:52:33.420Z,52.82
2024-02-12T10:53:33.478Z,57.78
2024-02-12T10:54:33.431Z,56.07
2024-02-12T10:55:33.410Z,55.69
2024-02-12T10:56:33.459Z,57.26
2024-02-12T10:57:33.370Z,49.76
2024-02-12T10:58:33.396Z,58.05
2024-02-12T10:59:33.406Z,58.21
2024-02-12T11:00:33.442Z,53.20
2024-02-12T11:01:33.389Z,54.92
2024-02-12T11:02:33.433Z,53.94
2024-02-12T11:03:33.358Z,52.84
2024-02-12T11:04:33.457Z,49.95
2024-02-12T11:05:33.325Z,57.25
2024-02-12T11:06:33.351Z,57.83
2024-02-12T11:07:33.313Z,57.38
2024-02-12T11:08:33.342Z,53.94
2024-02-12T11:09:33.281Z,59.53
2024-02-12T11:10:33.276Z,58.18
2024-02-12T11:11:33.348Z,58.28
2024-02-12T11:12:33.277Z,57.68
2024-02-12T11:13:33.278Z,54.59
2024-02-12T11:14:33.299Z,55.25
2024-02-12T11:15:33.241Z,54.07
2024-02-12T11:16:33.274Z,58.22
2024-02-12T11:17:33.397Z,57.04
2024-02-12T11:18:33.254Z,55.98
2024-02-12T11:19:33.225Z,56.80
2024-02-12T11:20:33.222Z,53.83
2024-02-12T11:21:33.238Z,60.23
2024-02-12T11:22:34.210Z,57.07
2024-02-12T11:23:33.197Z,58.45
2024-02-12T11:24:33.164Z,56.54
2024-02-12T11:25:39.058Z,57.22
2024-02-12T11:26:35.171Z,55.26
2024-02-12T11:27:33.180Z,58.11
2024-02-12T11:28:33.135Z,56.49
2024-02-12T11:29:33.135Z,56.81
2024-02-12T11:30:33.128Z,58.02
2024-02-12T11:31:33.112Z,57.20
2024-02-12T11:32:33.167Z,53.64
2024-02-12T11:33:33.232Z,55.29
2024-02-12T11:34:33.128Z,57.42
2024-02-12T11:35:33.133Z,56.03
2024-02-12T11:36:33.738Z,54.24
2024-02-12T11:37:33.081Z,55.88
2024-02-12T11:38:33.102Z,57.09
2024-02-12T11:39:33.047Z,56.76
2024-02-12T11:40:33.038Z,57.71
2024-02-12T11:41:33.076Z,54.29
2024-02-12T11:42:35.300Z,57.09
2024-02-12T11:43:33.008Z,56.81
2024-02-12T11:44:33.082Z,53.84
2024-02-12T11:45:32.995Z,58.73
2024-02-12T11:46:33.015Z,55.49
2024-02-12T11:47:33.085Z,56.09
2024-02-12T11:48:33.048Z,57.16
2024-02-12T11:49:33.042Z,58.02
2024-02-12T11:50:33.065Z,59.58
2024-02-12T11:51:32.977Z,58.84
2024-02-12T11:52:32.942Z,60.19
2024-02-12T11:53:32.969Z,60.97
2024-02-12T11:54:32.931Z,62.95
2024-02-12T11:55:32.952Z,60.07
2024-02-12T11:56:32.955Z,60.04
2024-02-12T11:57:32.918Z,62.62
2024-02-12T11:58:32.893Z,56.85
2024-02-12T11:59:32.903Z,59.35
2024-02-12T12:00:32.928Z,56.16
2024-02-12T12:01:32.869Z,58.06
2024-02-12T12:02:32.924Z,56.59
2024-02-12T12:03:32.871Z,59.30
2024-02-12T12:04:32.904Z,57.87
2024-02-12T12:05:32.909Z,55.95
2024-02-12T12:06:32.886Z,56.11
2024-02-12T12:07:32.812Z,61.48
2024-02-12T12:08:33.868Z,57.15
2024-02-12T12:09:32.872Z,57.22
2024-02-12T12:10:32.798Z,59.16
2024-02-12T12:11:32.829Z,57.11
2024-02-12T12:12:32.785Z,60.97
2024-02-12T12:13:32.796Z,60.84
2024-02-12T12:14:32.843Z,55.02
2024-02-12T12:15:32.899Z,56.54
2024-02-12T12:16:32.749Z,55.96
2024-02-12T12:17:34.265Z,57.39
2024-02-12T12:18:32.988Z,57.55
2024-02-12T12:19:32.954Z,58.79
2024-02-12T12:20:33.811Z,58.32
2024-02-12T12:21:32.718Z,59.25
2024-02-12T12:22:32.701Z,56.39
2024-02-12T12:23:32.760Z,58.14
2024-02-12T12:24:32.709Z,59.30
2024-02-12T12:25:32.684Z,57.00
2024-02-12T12:26:32.815Z,59.64
2024-02-12T12:27:32.675Z,58.51
2024-02-12T12:28:32.670Z,57.58
2024-02-12T12:29:32.702Z,59.85
2024-02-12T12:30:32.656Z,60.34
2024-02-12T12:31:32.680Z,57.81
2024-02-12T12:32:32.746Z,58.37
2024-02-12T12:33:32.659Z,60.47
2024-02-12T12:34:32.665Z,61.45
2024-02-12T12:35:32.612Z,62.24
2024-02-12T12:36:32.821Z,55.66
2024-02-12T12:37:32.603Z,59.32
2024-02-12T12:38:32.620Z,60.86
2024-02-12T12:39:32.568Z,55.82
2024-02-12T12:40:32.556Z,57.81
2024-02-12T12:41:32.575Z,59.37
2024-02-12T12:42:33.568Z,58.64
2024-02-12T12:43:32.532Z,57.17
2024-02-12T12:44:32.576Z,58.39
2024-02-12T12:45:32.522Z,59.12
2024-02-12T12:46:32.503Z,58.75
2024-02-12T12:47:32.540Z,51.58
2024-02-12T12:48:32.623Z,62.25
2024-02-12T12:49:32.527Z,62.00
2024-02-12T12:50:32.543Z,60.02
2024-02-12T12:51:32.496Z,60.67
2024-02-12T12:52:32.524Z,59.40
2024-02-12T12:53:32.472Z,62.10